createdAt,value
2023-05-01T00:01:56.304Z,8.30
2023-05-01T00:04:24.474Z,10.57
2023-05-01T00:06:52.754Z,9.10
2023-05-01T00:09:21.010Z,7.93
2023-05-01T00:11:49.115Z,8.73
2023-05-01T00:14:17.300Z,10.63
2023-05-01T00:16:47.965Z,10.33
2023-05-01T00:19:18.443Z,8.47
2023-05-01T00:21:48.164Z,8.57
2023-05-01T00:24:17.001Z,7.20
2023-05-01T00:26:45.501Z,6.50
2023-05-01T00:29:13.643Z,8.70
2023-05-01T00:31:42.706Z,7.07
2023-05-01T00:34:12.385Z,7.33
2023-05-01T00:36:40.853Z,7.27
2023-05-01T00:39:09.092Z,8.73
2023-05-01T00:41:37.261Z,9.40
2023-05-01T00:44:05.647Z,12.10
2023-05-01T00:46:36.324Z,9.23
2023-05-01T00:49:05.359Z,8.73
2023-05-01T00:51:35.375Z,10.97
2023-05-01T00:54:04.486Z,9.80
2023-05-01T00:56:32.788Z,8.37
2023-05-01T00:59:01.881Z,8.57
2023-05-01T01:01:30.328Z,7.10
2023-05-01T01:03:58.492Z,6.30
2023-05-01T01:06:43.809Z,6.90
2023-05-01T01:09:29.802Z,9.83
2023-05-01T01:12:16.970Z,7.77
2023-05-01T01:14:59.330Z,7.60
2023-05-01T01:17:37.354Z,7.57
2023-05-01T01:20:35.560Z,6.27
2023-05-01T01:23:32.511Z,6.90
2023-05-01T01:26:21.588Z,7.57
2023-05-01T01:29:36.500Z,7.37
2023-05-01T01:32:31.653Z,8.87
2023-05-01T01:35:07.118Z,9.60
2023-05-01T01:37:48.403Z,7.03
2023-05-01T01:40:23.449Z,9.10
2023-05-01T01:42:59.977Z,9.10
2023-05-01T01:45:40.780Z,7.23
2023-05-01T01:48:14.140Z,7.40
2023-05-01T01:50:46.518Z,9.00
2023-05-01T01:53:19.471Z,8.90
2023-05-01T01:55:50.618Z,9.50
2023-05-01T01:58:26.070Z,7.50
2023-05-01T02:00:56.316Z,7.23
2023-05-01T02:03:26.562Z,8.60
2023-05-01T02:05:58.356Z,6.50
2023-05-01T02:08:31.582Z,9.13
2023-05-01T02:11:02.473Z,6.77
2023-05-01T02:13:32.353Z,8.03
2023-05-01T02:16:03.954Z,6.80
2023-05-01T02:18:34.097Z,7.53
2023-05-01T02:21:06.160Z,8.50
2023-05-01T02:23:35.121Z,9.40
2023-05-01T02:26:05.410Z,8.60
2023-05-01T02:28:35.770Z,7.50
2023-05-01T02:31:05.232Z,8.47
2023-05-01T02:33:33.332Z,11.50
2023-05-01T02:36:03.391Z,9.63
2023-05-01T02:38:31.670Z,8.87
2023-05-01T02:41:01.830Z,7.30
2023-05-01T02:43:33.878Z,9.43
2023-05-01T02:46:05.241Z,9.67
2023-05-01T02:48:34.878Z,7.60
2023-05-01T02:51:07.329Z,7.67
2023-05-01T02:53:37.281Z,7.90
2023-05-01T02:56:07.642Z,8.97
2023-05-01T02:58:36.303Z,10.07
2023-05-01T03:01:05.182Z,8.67
2023-05-01T03:03:33.338Z,9.07
2023-05-01T03:06:03.303Z,6.70
2023-05-01T03:08:31.478Z,7.87
2023-05-01T03:10:59.531Z,9.57
2023-05-01T03:13:27.823Z,6.47
2023-05-01T03:15:55.982Z,8.33
2023-05-01T03:18:24.282Z,8.00
2023-05-01T03:20:53.754Z,8.00
2023-05-01T03:23:24.594Z,7.50
2023-05-01T03:25:54.190Z,10.93
2023-05-01T03:28:23.513Z,8.27
2023-05-01T03:30:52.594Z,10.47
2023-05-01T03:33:20.753Z,10.87
2023-05-01T03:35:49.191Z,9.67
2023-05-01T03:38:17.392Z,10.90
2023-05-01T03:40:46.857Z,8.67
2023-05-01T03:43:14.985Z,8.67
2023-05-01T03:45:44.794Z,10.20
2023-05-01T03:48:13.740Z,9.30
2023-05-01T03:50:42.233Z,11.73
2023-05-01T03:53:10.392Z,8.93
2023-05-01T03:55:38.635Z,11.57
2023-05-01T03:58:08.150Z,9.73
2023-05-01T04:00:36.213Z,13.63
2023-05-01T04:03:04.561Z,10.67
2023-05-01T04:05:33.346Z,11.10
2023-05-01T04:08:01.506Z,12.03
2023-05-01T04:10:29.582Z,11.80
2023-05-01T04:12:57.738Z,11.00
2023-05-01T04:15:27.237Z,12.23
2023-05-01T04:17:56.728Z,12.57
2023-05-01T04:20:24.869Z,13.53
2023-05-01T04:22:53.408Z,12.90
2023-05-01T04:25:21.599Z,10.97
2023-05-01T04:27:49.671Z,14.47
2023-05-01T04:30:18.146Z,13.37
2023-05-01T04:32:47.683Z,13.57
2023-05-01T04:35:16.227Z,15.00
2023-05-01T04:37:44.337Z,13.80
2023-05-01T04:40:13.967Z,14.00
2023-05-01T04:42:42.404Z,15.20
2023-05-01T04:45:11.789Z,14.90
2023-05-01T04:47:39.933Z,16.00
2023-05-01T04:50:10.834Z,17.27
2023-05-01T04:52:38.981Z,14.50
2023-05-01T04:55:09.220Z,14.83
2023-05-01T04:57:37.609Z,15.33
2023-05-01T05:00:07.917Z,15.30
2023-05-01T05:02:36.165Z,15.77
2023-05-01T05:05:04.428Z,16.47
2023-05-01T05:07:34.018Z,18.93
2023-05-01T05:10:02.111Z,19.30
2023-05-01T05:12:30.259Z,19.07
2023-05-01T05:14:58.733Z,18.50
2023-05-01T05:17:27.110Z,20.13
2023-05-01T05:19:55.383Z,21.53
2023-05-01T05:22:25.956Z,21.97
2023-05-01T05:24:59.958Z,20.97
2023-05-01T05:27:28.997Z,21.87
2023-05-01T05:29:57.266Z,21.23
2023-05-01T05:32:25.567Z,20.03
2023-05-01T05:34:53.911Z,20.47
2023-05-01T05:37:22.045Z,18.80
2023-05-01T05:39:50.156Z,20.23
2023-05-01T05:42:19.730Z,18.43
2023-05-01T05:44:47.859Z,18.83
2023-05-01T05:47:15.964Z,18.30
2023-05-01T05:49:44.182Z,17.60
2023-05-01T05:52:12.247Z,21.70
2023-05-01T05:54:40.555Z,16.23
2023-05-01T05:57:08.853Z,17.00
2023-05-01T05:59:38.574Z,16.20
2023-05-01T06:02:06.679Z,15.93
2023-05-01T06:04:34.841Z,14.90
2023-05-01T06:07:03.750Z,16.63
2023-05-01T06:09:31.929Z,17.77
2023-05-01T06:11:59.999Z,15.80
2023-05-01T06:14:28.081Z,17.33
2023-05-01T06:16:57.622Z,16.80
2023-05-01T06:19:25.771Z,15.07
2023-05-01T06:21:53.867Z,14.43
2023-05-01T06:24:21.965Z,13.93
2023-05-01T06:26:50.166Z,15.00
2023-05-01T06:29:18.236Z,13.57
2023-05-01T06:31:46.720Z,14.37
2023-05-01T06:34:16.215Z,16.00
2023-05-01T06:36:44.332Z,20.47
2023-05-01T06:39:12.452Z,15.40
2023-05-01T06:41:40.572Z,15.40
2023-05-01T06:44:08.677Z,18.53
2023-05-01T06:46:36.816Z,15.93
2023-05-01T06:49:05.258Z,13.63
2023-05-01T06:51:34.793Z,14.87
2023-05-01T06:54:03.089Z,13.53
2023-05-01T06:56:32.269Z,14.60
2023-05-01T06:59:00.371Z,15.00
2023-05-01T07:01:32.667Z,16.60
2023-05-01T07:04:02.076Z,14.00
2023-05-01T07:06:32.256Z,13.80
2023-05-01T07:09:01.879Z,15.83
2023-05-01T07:11:30.072Z,12.80
2023-05-01T07:13:58.193Z,14.60
2023-05-01T07:16:26.436Z,16.47
2023-05-01T07:18:54.595Z,15.30
2023-05-01T07:21:22.849Z,14.87
2023-05-01T07:23:51.070Z,14.90
2023-05-01T07:26:20.658Z,12.73
2023-05-01T07:28:48.736Z,14.83
2023-05-01T07:31:16.936Z,13.83
2023-05-01T07:33:45.508Z,14.80
2023-05-01T07:36:13.983Z,15.20
2023-05-01T07:38:42.087Z,15.00
2023-05-01T07:41:10.210Z,14.37
2023-05-01T07:43:39.672Z,13.67
2023-05-01T07:46:07.848Z,15.37
2023-05-01T07:48:38.182Z,15.63
2023-05-01T07:51:07.286Z,12.40
2023-05-01T07:53:35.634Z,12.88
2023-05-01T07:56:08.747Z,13.67
2023-05-01T07:58:41.040Z,12.87
2023-05-01T08:01:09.298Z,15.33
2023-05-01T08:03:37.818Z,13.97
2023-05-01T08:06:07.041Z,12.52
2023-05-01T08:08:35.411Z,13.77
2023-05-01T08:11:03.538Z,13.77
2023-05-01T08:13:31.814Z,15.70
2023-05-01T08:16:04.698Z,13.57
2023-05-01T08:18:32.944Z,12.27
2023-05-01T08:21:01.077Z,12.57
2023-05-01T08:23:29.269Z,13.97
2023-05-01T08:25:57.989Z,12.03
2023-05-01T08:28:26.180Z,13.13
2023-05-01T08:30:54.278Z,16.03
2023-05-01T08:33:24.345Z,11.93
2023-05-01T08:35:53.527Z,16.33
2023-05-01T08:38:21.653Z,14.77
2023-05-01T08:40:56.698Z,14.93
2023-05-01T08:43:26.637Z,13.85
2023-05-01T08:46:00.061Z,12.27
2023-05-01T08:48:30.469Z,12.80
2023-05-01T08:51:01.630Z,12.25
2023-05-01T08:53:32.982Z,12.90
2023-05-01T08:56:07.255Z,11.60
2023-05-01T08:58:38.048Z,12.60
2023-05-01T09:01:07.410Z,12.20
2023-05-01T09:03:38.280Z,14.18
2023-05-01T09:06:07.682Z,13.85
2023-05-01T09:08:35.831Z,14.35
2023-05-01T09:11:06.238Z,12.63
2023-05-01T09:13:34.656Z,13.50
2023-05-01T09:16:03.346Z,14.32
2023-05-01T09:18:32.264Z,15.07
2023-05-01T09:21:01.888Z,13.48
2023-05-01T09:23:30.100Z,14.43
2023-05-01T09:26:00.503Z,14.15
2023-05-01T09:28:42.875Z,11.43
2023-05-01T09:31:23.527Z,12.93
2023-05-01T09:33:56.705Z,12.52
2023-05-01T09:36:28.054Z,10.18
2023-05-01T09:38:56.283Z,11.15
2023-05-01T09:41:25.603Z,11.20
2023-05-01T09:43:55.492Z,11.55
2023-05-01T09:46:25.253Z,11.90
2023-05-01T09:48:56.428Z,11.63
2023-05-01T09:51:29.824Z,9.73
2023-05-01T09:54:00.330Z,12.55
2023-05-01T09:56:32.517Z,9.23
2023-05-01T09:59:17.374Z,10.18
2023-05-01T10:01:48.197Z,8.88
2023-05-01T10:04:16.645Z,8.70
2023-05-01T10:06:46.467Z,11.48
2023-05-01T10:09:29.929Z,11.38
2023-05-01T10:11:59.091Z,12.57
2023-05-01T10:14:29.623Z,9.13
2023-05-01T10:16:58.076Z,8.50
2023-05-01T10:19:26.598Z,8.52
2023-05-01T10:21:56.342Z,10.85
2023-05-01T10:24:24.623Z,9.25
2023-05-01T10:26:54.484Z,8.05
2023-05-01T10:29:27.866Z,8.75
2023-05-01T10:31:56.849Z,7.50
2023-05-01T10:34:28.571Z,8.80
2023-05-01T10:37:07.834Z,8.32
2023-05-01T10:39:38.313Z,9.88
2023-05-01T10:42:11.195Z,8.50
2023-05-01T10:44:39.631Z,8.50
2023-05-01T10:47:48.816Z,7.88
2023-05-01T10:50:17.391Z,8.27
2023-05-01T10:53:20.928Z,6.60
2023-05-01T10:55:50.926Z,6.70
2023-05-01T10:58:58.957Z,9.10
2023-05-01T11:01:33.162Z,6.88
2023-05-01T11:04:04.665Z,6.88
2023-05-01T11:06:33.818Z,6.63
2023-05-01T11:09:24.181Z,8.30
2023-05-01T11:11:53.654Z,6.15
2023-05-01T11:14:21.862Z,4.90
2023-05-01T11:16:50.052Z,6.50
2023-05-01T11:19:50.777Z,6.38
2023-05-01T11:22:19.386Z,6.05
2023-05-01T11:24:48.035Z,6.60
2023-05-01T11:27:18.216Z,5.90
2023-05-01T11:29:49.566Z,6.72
2023-05-01T11:32:23.596Z,8.07
2023-05-01T11:34:53.522Z,5.57
2023-05-01T11:37:39.390Z,5.88
2023-05-01T11:40:22.109Z,5.85
2023-05-01T11:43:00.894Z,5.88
2023-05-01T11:45:29.113Z,5.72
2023-05-01T11:47:57.437Z,5.40
2023-05-01T11:50:33.690Z,4.95
2023-05-01T11:53:01.855Z,6.20
2023-05-01T11:55:33.352Z,6.00
2023-05-01T11:58:04.918Z,5.05
2023-05-01T12:00:37.396Z,4.93
2023-05-01T12:03:08.451Z,5.50
2023-05-01T12:05:39.380Z,8.30
2023-05-01T12:08:14.232Z,7.30
2023-05-01T12:10:44.982Z,6.35
2023-05-01T12:13:16.142Z,7.18
2023-05-01T12:15:48.086Z,6.40
2023-05-01T12:18:18.553Z,7.15
2023-05-01T12:20:48.833Z,8.50
2023-05-01T12:23:17.776Z,5.60
2023-05-01T12:25:47.588Z,6.22
2023-05-01T12:28:21.132Z,6.72
2023-05-01T12:30:50.362Z,7.88
2023-05-01T12:33:20.822Z,5.60
2023-05-01T12:35:51.610Z,6.10
2023-05-01T12:38:21.652Z,5.88
2023-05-01T12:40:55.611Z,5.50
2023-05-01T12:43:33.209Z,5.57
2023-05-01T12:46:03.039Z,5.88
2023-05-01T12:48:31.627Z,6.38
2023-05-01T12:50:59.907Z,5.30
2023-05-01T12:53:29.623Z,9.02
2023-05-01T12:55:59.757Z,5.45
2023-05-01T12:58:38.212Z,7.55
2023-05-01T13:01:07.268Z,7.30
2023-05-01T13:03:39.169Z,6.63
2023-05-01T13:06:09.317Z,7.25
2023-05-01T13:08:40.559Z,7.22
2023-05-01T13:11:14.103Z,6.00
2023-05-01T13:13:46.362Z,7.28
2023-05-01T13:16:16.523Z,5.63
2023-05-01T13:18:47.235Z,5.97
2023-05-01T13:21:17.916Z,7.70
2023-05-01T13:23:55.946Z,6.05
2023-05-01T13:26:30.298Z,6.85
2023-05-01T13:29:01.700Z,5.82
2023-05-01T13:31:30.834Z,5.47
2023-05-01T13:34:00.917Z,6.68
2023-05-01T13:36:33.291Z,6.30
2023-05-01T13:39:01.948Z,7.28
2023-05-01T13:41:30.472Z,6.32
2023-05-01T13:44:00.331Z,5.47
2023-05-01T13:46:29.931Z,6.47
2023-05-01T13:49:04.687Z,6.80
2023-05-01T13:51:34.083Z,6.85
2023-05-01T13:54:03.538Z,8.05
2023-05-01T13:56:32.858Z,5.82
2023-05-01T13:59:02.711Z,6.60
2023-05-01T14:01:31.175Z,6.95
2023-05-01T14:04:00.288Z,7.13
2023-05-01T14:06:28.974Z,7.03
2023-05-01T14:09:00.427Z,7.25
2023-05-01T14:11:28.629Z,6.97
2023-05-01T14:14:00.769Z,6.65
2023-05-01T14:16:31.649Z,6.35
2023-05-01T14:18:59.869Z,6.90
2023-05-01T14:21:28.921Z,6.80
2023-05-01T14:23:58.136Z,7.68
2023-05-01T14:26:26.687Z,7.43
2023-05-01T14:28:55.477Z,7.85
2023-05-01T14:31:31.816Z,6.88
2023-05-01T14:34:01.634Z,6.90
2023-05-01T14:36:32.504Z,7.20
2023-05-01T14:39:03.473Z,6.70
2023-05-01T14:41:31.572Z,10.65
2023-05-01T14:43:59.564Z,6.55
2023-05-01T14:46:32.405Z,6.30
2023-05-01T14:49:01.808Z,6.90
2023-05-01T14:51:31.537Z,6.40
2023-05-01T14:54:00.040Z,6.07
2023-05-01T14:56:28.104Z,6.43
2023-05-01T14:58:56.105Z,7.15
2023-05-01T15:01:24.166Z,6.18
2023-05-01T15:03:54.208Z,8.23
2023-05-01T15:06:23.274Z,6.10
2023-05-01T15:08:51.381Z,6.05
2023-05-01T15:11:20.853Z,5.82
2023-05-01T15:13:50.369Z,7.97
2023-05-01T15:16:18.623Z,6.60
2023-05-01T15:18:46.674Z,7.60
2023-05-01T15:21:16.079Z,6.60
2023-05-01T15:23:45.104Z,6.18
2023-05-01T15:26:13.722Z,6.65
2023-05-01T15:28:41.785Z,6.32
2023-05-01T15:31:09.804Z,8.07
2023-05-01T15:33:37.897Z,7.22
2023-05-01T15:36:06.617Z,7.07
2023-05-01T15:38:36.050Z,6.95
2023-05-01T15:41:04.070Z,7.25
2023-05-01T15:43:32.132Z,8.55
2023-05-01T15:46:00.346Z,8.70
2023-05-01T15:48:28.519Z,7.28
2023-05-01T15:50:56.553Z,7.28
2023-05-01T15:53:24.786Z,7.90
2023-05-01T15:55:58.532Z,8.45
2023-05-01T15:58:26.624Z,8.95
2023-05-01T16:00:54.677Z,8.60
2023-05-01T16:03:22.830Z,7.50
2023-05-01T16:05:51.304Z,7.07
2023-05-01T16:08:19.901Z,6.65
2023-05-01T16:10:47.928Z,8.27
2023-05-01T16:13:17.289Z,7.60
2023-05-01T16:15:45.354Z,7.47
2023-05-01T16:18:21.301Z,6.60
2023-05-01T16:20:53.298Z,5.57
2023-05-01T16:23:21.661Z,9.02
2023-05-01T16:25:49.760Z,7.18
2023-05-01T16:28:19.308Z,6.43
2023-05-01T16:30:47.330Z,9.30
2023-05-01T16:33:19.303Z,9.00
2023-05-01T16:35:49.704Z,6.22
2023-05-01T16:38:18.372Z,6.28
2023-05-01T16:40:48.254Z,6.07
2023-05-01T16:43:17.858Z,7.18
2023-05-01T16:45:46.972Z,6.40
2023-05-01T16:48:24.098Z,6.40
2023-05-01T16:50:52.592Z,7.53
2023-05-01T16:53:21.356Z,10.30
2023-05-01T16:55:49.384Z,6.88
2023-05-01T16:58:18.775Z,7.68
2023-05-01T17:00:46.797Z,9.07
2023-05-01T17:03:16.115Z,7.95
2023-05-01T17:05:44.241Z,7.45
2023-05-01T17:08:12.570Z,8.05
2023-05-01T17:10:40.559Z,6.78
2023-05-01T17:13:08.752Z,7.65
2023-05-01T17:15:38.245Z,7.28
2023-05-01T17:18:06.696Z,7.50
2023-05-01T17:20:34.807Z,8.38
2023-05-01T17:23:02.908Z,10.13
2023-05-01T17:25:31.062Z,7.55
2023-05-01T17:28:00.064Z,8.65
2023-05-01T17:30:28.278Z,7.60
2023-05-01T17:32:57.971Z,8.27
2023-05-01T17:35:26.246Z,8.63
2023-05-01T17:37:54.356Z,7.68
2023-05-01T17:40:22.391Z,8.85
2023-05-01T17:42:50.456Z,7.97
2023-05-01T17:45:18.603Z,8.73
2023-05-01T17:47:46.728Z,7.40
2023-05-01T17:50:16.317Z,8.55
2023-05-01T17:52:45.342Z,8.90
2023-05-01T17:55:17.188Z,6.80
2023-05-01T17:57:47.139Z,6.47
2023-05-01T18:00:16.370Z,6.43
2023-05-01T18:02:44.947Z,8.63
2023-05-01T18:05:15.529Z,7.22
2023-05-01T18:07:43.569Z,7.03
2023-05-01T18:10:12.451Z,8.05
2023-05-01T18:12:40.587Z,9.20
2023-05-01T18:15:10.066Z,8.32
2023-05-01T18:17:38.230Z,8.02
2023-05-01T18:20:08.562Z,9.93
2023-05-01T18:22:38.057Z,9.52
2023-05-01T18:25:07.539Z,8.70
2023-05-01T18:27:37.367Z,10.93
2023-05-01T18:30:06.249Z,7.90
2023-05-01T18:32:46.959Z,9.43
2023-05-01T18:35:17.011Z,8.70
2023-05-01T18:37:46.473Z,9.50
2023-05-01T18:40:15.022Z,9.30
2023-05-01T18:42:43.437Z,10.65
2023-05-01T18:45:11.953Z,8.70
2023-05-01T18:47:40.136Z,8.52
2023-05-01T18:50:11.283Z,8.40
2023-05-01T18:52:39.371Z,8.18
2023-05-01T18:55:11.263Z,7.53
2023-05-01T18:57:41.603Z,7.60
2023-05-01T19:00:11.684Z,8.30
2023-05-01T19:02:39.801Z,8.77
2023-05-01T19:05:09.415Z,8.73
2023-05-01T19:07:37.897Z,9.27
2023-05-01T19:10:08.871Z,7.03
2023-05-01T19:12:39.061Z,8.45
2023-05-01T19:15:08.506Z,7.32
2023-05-01T19:17:36.706Z,7.00
2023-05-01T19:20:05.928Z,6.13
2023-05-01T19:22:33.978Z,7.10
2023-05-01T19:25:03.005Z,6.72
2023-05-01T19:27:32.407Z,6.70
2023-05-01T19:30:01.186Z,6.53
2023-05-01T19:32:29.798Z,6.22
2023-05-01T19:34:57.999Z,7.57
2023-05-01T19:37:27.447Z,8.68
2023-05-01T19:39:55.982Z,8.18
2023-05-01T19:42:24.179Z,6.97
2023-05-01T19:44:53.615Z,6.60
2023-05-01T19:47:21.685Z,6.88
2023-05-01T19:49:49.809Z,6.40
2023-05-01T19:52:17.894Z,7.40
2023-05-01T19:54:46.039Z,8.38
2023-05-01T19:57:14.176Z,10.05
2023-05-01T19:59:42.691Z,8.32
2023-05-01T20:02:12.176Z,9.40
2023-05-01T20:04:40.395Z,7.75
2023-05-01T20:07:08.622Z,8.23
2023-05-01T20:09:36.711Z,8.27
2023-05-01T20:12:05.208Z,6.10
2023-05-01T20:14:34.211Z,6.53
2023-05-01T20:17:02.545Z,6.97
2023-05-01T20:19:32.098Z,7.90
2023-05-01T20:22:00.222Z,5.32
2023-05-01T20:24:28.357Z,8.05
2023-05-01T20:26:58.127Z,6.60
2023-05-01T20:29:26.730Z,6.50
2023-05-01T20:31:55.547Z,6.30
2023-05-01T20:34:25.232Z,6.03
2023-05-01T20:36:54.636Z,6.40
2023-05-01T20:39:22.698Z,5.63
2023-05-01T20:41:50.787Z,6.43
2023-05-01T20:44:18.865Z,6.38
2023-05-01T20:46:47.275Z,8.47
2023-05-01T20:49:16.288Z,7.03
2023-05-01T20:51:44.433Z,6.70
2023-05-01T20:54:13.828Z,6.93
2023-05-01T20:56:42.048Z,7.30
2023-05-01T20:59:10.140Z,7.13
2023-05-01T21:01:38.279Z,8.43
2023-05-01T21:04:07.162Z,7.38
2023-05-01T21:06:35.348Z,7.73
2023-05-01T21:09:05.886Z,9.97
2023-05-01T21:11:35.298Z,8.07
2023-05-01T21:14:03.451Z,8.23
2023-05-01T21:16:31.790Z,8.43
2023-05-01T21:19:00.024Z,8.17
2023-05-01T21:21:28.960Z,8.33
2023-05-01T21:23:57.089Z,9.13
2023-05-01T21:26:25.690Z,9.00
2023-05-01T21:28:55.127Z,9.43
2023-05-01T21:31:28.929Z,9.57
2023-05-01T21:34:02.265Z,11.10
2023-05-01T21:36:31.201Z,9.60
2023-05-01T21:39:04.504Z,11.00
2023-05-01T21:41:32.610Z,10.63
2023-05-01T21:44:04.689Z,12.33
2023-05-01T21:46:32.912Z,9.30
2023-05-01T21:49:01.112Z,9.97
2023-05-01T21:51:29.544Z,10.18
2023-05-01T21:53:57.736Z,10.43
2023-05-01T21:56:26.255Z,10.97
2023-05-01T21:59:02.978Z,11.48
2023-05-01T22:01:31.561Z,10.30
2023-05-01T22:03:59.853Z,10.50
2023-05-01T22:06:28.247Z,9.70
2023-05-01T22:08:56.490Z,10.23
2023-05-01T22:11:24.675Z,9.67
2023-05-01T22:13:52.746Z,9.87
2023-05-01T22:16:22.272Z,9.63
2023-05-01T22:18:51.243Z,10.30
2023-05-01T22:21:19.391Z,9.23
2023-05-01T22:23:47.590Z,10.07
2023-05-01T22:26:15.655Z,9.67
2023-05-01T22:28:45.245Z,9.53
2023-05-01T22:31:13.377Z,10.07
2023-05-01T22:33:42.875Z,9.80
2023-05-01T22:36:10.993Z,11.30
2023-05-01T22:38:39.184Z,9.07
2023-05-01T22:41:07.335Z,9.88
2023-05-01T22:43:36.357Z,10.57
2023-05-01T22:46:05.899Z,9.20
2023-05-01T22:48:34.174Z,10.13
2023-05-01T22:51:03.647Z,9.37
2023-05-01T22:53:31.787Z,10.53
2023-05-01T22:55:59.893Z,9.98
2023-05-01T22:58:28.001Z,9.83
2023-05-01T23:00:56.141Z,9.47
2023-05-01T23:03:24.369Z,11.53
2023-05-01T23:05:52.555Z,9.17
2023-05-01T23:08:22.023Z,9.97
2023-05-01T23:10:50.481Z,9.93
2023-05-01T23:13:23.343Z,9.27
2023-05-01T23:15:52.413Z,11.03
2023-05-01T23:18:25.503Z,11.00
2023-05-01T23:20:55.460Z,9.23
2023-05-01T23:23:30.903Z,8.97
2023-05-01T23:25:59.116Z,8.57
2023-05-01T23:28:29.070Z,8.83
2023-05-01T23:30:59.662Z,8.20
2023-05-01T23:33:34.404Z,8.40
2023-05-01T23:36:02.571Z,8.00
2023-05-01T23:38:31.996Z,8.10
2023-05-01T23:41:00.195Z,8.43
2023-05-01T23:43:28.582Z,8.60
2023-05-01T23:45:56.761Z,8.20
2023-05-01T23:48:25.054Z,8.80
2023-05-01T23:50:53.590Z,8.17
2023-05-01T23:53:22.161Z,7.93
2023-05-01T23:55:51.645Z,8.53
2023-05-01T23:58:19.798Z,8.77
